createdAt,value
2018-10-12T00:00:34.530Z,80.52
2018-10-12T00:01:34.489Z,81.54
2018-10-12T00:02:34.478Z,81.88
2018-10-12T00:03:34.478Z,82.15
2018-10-12T00:04:34.454Z,81.27
2018-10-12T00:05:34.481Z,81.58
2018-10-12T00:06:34.433Z,82.60
2018-10-12T00:07:34.425Z,82.50
2018-10-12T00:08:34.411Z,82.60
2018-10-12T00:09:34.437Z,82.40
2018-10-12T00:10:34.410Z,82.70
2018-10-12T00:11:34.378Z,82.60
2018-10-12T00:12:34.366Z,83.25
2018-10-12T00:13:34.355Z,83.76
2018-10-12T00:14:34.366Z,83.97
2018-10-12T00:15:34.342Z,83.87
2018-10-12T00:16:34.323Z,84.48
2018-10-12T00:17:34.311Z,84.38
2018-10-12T00:18:34.300Z,84.17
2018-10-12T00:19:34.310Z,84.28
2018-10-12T00:20:34.278Z,83.25
2018-10-12T00:21:34.310Z,84.17
2018-10-12T00:22:34.255Z,84.17
2018-10-12T00:23:34.246Z,83.66
2018-10-12T00:24:34.234Z,83.66
2018-10-12T00:25:34.222Z,84.38
2018-10-12T00:26:34.233Z,84.48
2018-10-12T00:27:34.248Z,85.10
2018-10-12T00:28:34.223Z,84.48
2018-10-12T00:29:34.177Z,84.34
2018-10-12T00:30:34.166Z,84.14
2018-10-12T00:31:34.155Z,84.38
2018-10-12T00:32:34.166Z,84.58
2018-10-12T00:33:34.159Z,85.26
2018-10-12T00:34:34.123Z,84.44
2018-10-12T00:35:34.140Z,84.48
2018-10-12T00:36:34.099Z,84.14
2018-10-12T00:37:34.088Z,83.73
2018-10-12T00:38:34.080Z,83.42
2018-10-12T00:39:34.083Z,83.83
2018-10-12T00:40:34.081Z,83.93
2018-10-12T00:41:34.044Z,83.62
2018-10-12T00:42:34.033Z,83.79
2018-10-12T00:43:34.036Z,83.73
2018-10-12T00:44:34.011Z,83.89
2018-10-12T00:45:34.025Z,84.14
2018-10-12T00:46:33.990Z,83.38
2018-10-12T00:47:33.998Z,83.89
2018-10-12T00:48:33.988Z,83.89
2018-10-12T00:49:33.958Z,85.02
2018-10-12T00:50:33.948Z,85.02
2018-10-12T00:51:33.976Z,84.50
2018-10-12T00:52:33.921Z,84.30
2018-10-12T00:53:33.932Z,83.79
2018-10-12T00:54:33.900Z,83.79
2018-10-12T00:55:33.912Z,83.89
2018-10-12T00:56:33.881Z,83.07
2018-10-12T00:57:33.897Z,83.24
2018-10-12T00:58:33.885Z,82.63
2018-10-12T00:59:33.845Z,83.14
2018-10-12T01:00:33.833Z,82.93
2018-10-12T01:01:33.824Z,83.65
2018-10-12T01:02:33.812Z,83.75
2018-10-12T01:03:33.835Z,83.54
2018-10-12T01:04:33.790Z,82.83
2018-10-12T01:05:33.777Z,83.75
2018-10-12T01:06:33.835Z,83.54
2018-10-12T01:07:33.756Z,83.34
2018-10-12T01:08:33.760Z,84.36
2018-10-12T01:09:33.769Z,83.85
2018-10-12T01:10:33.785Z,83.75
2018-10-12T01:11:33.712Z,83.34
2018-10-12T01:12:33.700Z,84.16
2018-10-12T01:13:33.702Z,84.16
2018-10-12T01:14:33.701Z,83.54
2018-10-12T01:15:33.672Z,83.14
2018-10-12T01:16:33.677Z,82.73
2018-10-12T01:17:33.644Z,82.42
2018-10-12T01:18:33.636Z,82.79
2018-10-12T01:19:33.621Z,83.40
2018-10-12T01:20:33.610Z,83.40
2018-10-12T01:21:33.634Z,84.06
2018-10-12T01:22:33.622Z,83.95
2018-10-12T01:23:33.603Z,84.16
2018-10-12T01:24:33.567Z,83.34
2018-10-12T01:25:33.583Z,82.73
2018-10-12T01:26:33.543Z,82.32
2018-10-12T01:27:33.546Z,82.32
2018-10-12T01:28:33.521Z,82.08
2018-10-12T01:29:33.510Z,82.53
2018-10-12T01:30:33.524Z,83.75
2018-10-12T01:31:33.488Z,83.04
2018-10-12T01:32:33.476Z,83.61
2018-10-12T01:33:33.509Z,83.85
2018-10-12T01:34:33.554Z,84.06
2018-10-12T01:35:33.488Z,84.06
2018-10-12T01:36:33.433Z,84.67
2018-10-12T01:37:33.423Z,84.36
2018-10-12T01:38:33.410Z,84.26
2018-10-12T01:39:33.400Z,83.85
2018-10-12T01:40:33.441Z,84.06
2018-10-12T01:41:33.380Z,84.47
2018-10-12T01:42:33.366Z,84.16
2018-10-12T01:43:33.355Z,83.95
2018-10-12T01:44:33.344Z,84.06
2018-10-12T01:45:33.360Z,83.65
2018-10-12T01:46:33.358Z,83.24
2018-10-12T01:47:33.312Z,83.44
2018-10-12T01:48:33.299Z,83.65
2018-10-12T01:49:33.290Z,83.75
2018-10-12T01:50:33.282Z,83.95
2018-10-12T01:51:33.309Z,84.36
2018-10-12T01:52:33.268Z,85.18
2018-10-12T01:53:33.244Z,84.57
2018-10-12T01:54:33.233Z,84.67
2018-10-12T01:55:33.223Z,85.08
2018-10-12T01:56:33.238Z,84.88
2018-10-12T01:57:33.200Z,85.38
2018-10-12T01:58:33.230Z,84.77
2018-10-12T01:59:33.205Z,84.88
2018-10-12T02:00:33.172Z,84.67
2018-10-12T02:01:33.156Z,84.06
2018-10-12T02:02:33.146Z,84.26
2018-10-12T02:03:33.159Z,84.06
2018-10-12T02:04:33.137Z,84.26
2018-10-12T02:05:33.114Z,84.67
2018-10-12T02:06:33.100Z,84.06
2018-10-12T02:07:33.095Z,84.06
2018-10-12T02:08:33.104Z,83.95
2018-10-12T02:09:33.067Z,84.16
2018-10-12T02:10:33.083Z,84.26
2018-10-12T02:11:33.048Z,84.16
2018-10-12T02:12:33.043Z,84.47
2018-10-12T02:13:33.052Z,84.77
2018-10-12T02:14:33.017Z,84.12
2018-10-12T02:15:33.002Z,84.26
2018-10-12T02:16:33.003Z,83.34
2018-10-12T02:17:32.980Z,83.51
2018-10-12T02:18:33.002Z,83.81
2018-10-12T02:19:32.957Z,84.01
2018-10-12T02:20:32.947Z,83.40
2018-10-12T02:21:32.936Z,84.12
2018-10-12T02:22:32.931Z,83.20
2018-10-12T02:23:32.941Z,83.40
2018-10-12T02:24:32.929Z,83.30
2018-10-12T02:25:32.891Z,82.59
2018-10-12T02:26:32.882Z,82.86
2018-10-12T02:27:32.869Z,83.40
2018-10-12T02:28:32.871Z,83.67
2018-10-12T02:29:32.878Z,83.20
2018-10-12T02:30:32.841Z,83.20
2018-10-12T02:31:32.824Z,84.12
2018-10-12T02:32:32.813Z,83.81
2018-10-12T02:33:32.809Z,83.61
2018-10-12T02:34:32.837Z,83.61
2018-10-12T02:35:32.780Z,83.61
2018-10-12T02:36:32.769Z,83.71
2018-10-12T02:37:32.758Z,83.57
2018-10-12T02:38:32.747Z,84.33
2018-10-12T02:39:32.759Z,84.12
2018-10-12T02:40:32.742Z,84.12
2018-10-12T02:41:32.713Z,84.12
2018-10-12T02:42:32.703Z,84.22
2018-10-12T02:43:32.709Z,84.12
2018-10-12T02:44:32.723Z,84.33
2018-10-12T02:45:32.671Z,83.71
2018-10-12T02:46:32.677Z,82.96
2018-10-12T02:47:32.651Z,83.20
2018-10-12T02:48:32.640Z,83.37
2018-10-12T02:49:32.650Z,83.37
2018-10-12T02:50:32.640Z,83.06
2018-10-12T02:51:32.603Z,83.67
2018-10-12T02:52:32.609Z,83.87
2018-10-12T02:53:32.581Z,84.18
2018-10-12T02:54:32.570Z,84.63
2018-10-12T02:55:32.585Z,84.59
2018-10-12T02:56:32.548Z,83.92
2018-10-12T02:57:32.537Z,84.12
2018-10-12T02:58:32.553Z,84.33
2018-10-12T02:59:32.517Z,83.61
2018-10-12T03:00:32.504Z,83.51
2018-10-12T03:01:32.493Z,84.36
2018-10-12T03:02:32.481Z,84.06
2018-10-12T03:03:32.496Z,84.16
2018-10-12T03:04:32.465Z,84.06
2018-10-12T03:05:32.448Z,84.16
2018-10-12T03:06:32.437Z,83.95
2018-10-12T03:07:32.430Z,84.88
2018-10-12T03:08:32.449Z,84.26
2018-10-12T03:09:32.404Z,84.20
2018-10-12T03:10:32.422Z,84.41
2018-10-12T03:11:32.396Z,84.09
2018-10-12T03:12:32.371Z,84.71
2018-10-12T03:13:32.396Z,84.61
2018-10-12T03:14:32.347Z,85.22
2018-10-12T03:15:32.337Z,84.91
2018-10-12T03:16:32.331Z,85.16
2018-10-12T03:17:32.327Z,85.47
2018-10-12T03:18:32.329Z,85.88
2018-10-12T03:19:32.295Z,86.18
2018-10-12T03:20:32.308Z,86.49
2018-10-12T03:21:32.275Z,85.97
2018-10-12T03:22:32.261Z,86.69
2018-10-12T03:23:32.256Z,86.79
2018-10-12T03:24:32.248Z,86.59
2018-10-12T03:25:32.254Z,86.69
2018-10-12T03:26:32.220Z,86.90
2018-10-12T03:27:32.203Z,87.61
2018-10-12T03:28:32.193Z,87.30
2018-10-12T03:29:32.183Z,87.55
2018-10-12T03:30:32.211Z,87.51
2018-10-12T03:31:32.160Z,87.35
2018-10-12T03:32:32.150Z,87.35
2018-10-12T03:33:32.137Z,87.41
2018-10-12T03:34:32.128Z,87.24
2018-10-12T03:35:32.146Z,87.14
2018-10-12T03:36:32.113Z,87.45
2018-10-12T03:37:32.124Z,87.65
2018-10-12T03:38:32.082Z,86.63
2018-10-12T03:39:32.090Z,86.73
2018-10-12T03:40:32.061Z,86.73
2018-10-12T03:41:32.059Z,86.73
2018-10-12T03:42:32.178Z,87.38
2018-10-12T03:43:32.027Z,87.29
2018-10-12T03:44:32.016Z,87.70
2018-10-12T03:45:32.004Z,87.49
2018-10-12T03:46:31.993Z,87.08
2018-10-12T03:47:32.027Z,87.79
2018-10-12T03:48:31.985Z,88.04
2018-10-12T03:49:31.961Z,88.41
2018-10-12T03:50:31.950Z,88.00
2018-10-12T03:51:31.940Z,88.41
2018-10-12T03:52:31.956Z,87.29
2018-10-12T03:53:31.944Z,87.70
2018-10-12T03:54:31.914Z,87.79
2018-10-12T03:55:31.895Z,87.79
2018-10-12T03:56:31.884Z,87.38
2018-10-12T03:57:31.875Z,87.29
2018-10-12T03:58:31.891Z,87.79
2018-10-12T03:59:31.850Z,87.90
2018-10-12T04:00:31.877Z,87.49
2018-10-12T04:01:31.829Z,87.29
2018-10-12T04:02:31.856Z,87.49
2018-10-12T04:03:31.804Z,87.53
2018-10-12T04:04:31.795Z,87.63
2018-10-12T04:05:31.824Z,88.14
2018-10-12T04:06:31.779Z,87.90
2018-10-12T04:07:31.761Z,88.56
2018-10-12T04:08:31.750Z,88.24
2018-10-12T04:09:31.738Z,87.94
2018-10-12T04:10:31.755Z,87.84
2018-10-12T04:11:31.715Z,87.63
2018-10-12T04:12:31.815Z,88.14
2018-10-12T04:13:31.704Z,88.65
2018-10-12T04:14:31.712Z,88.04
2018-10-12T04:15:31.671Z,88.56
2018-10-12T04:16:31.661Z,88.96
2018-10-12T04:17:31.649Z,88.96
2018-10-12T04:18:31.648Z,88.35
2018-10-12T04:19:31.653Z,88.39
2018-10-12T04:20:31.617Z,88.70
2018-10-12T04:21:31.632Z,88.35
2018-10-12T04:22:31.593Z,88.18
2018-10-12T04:23:31.583Z,88.04
2018-10-12T04:24:31.575Z,88.24
2018-10-12T04:25:31.562Z,88.24
2018-10-12T04:26:31.577Z,87.67
2018-10-12T04:27:31.556Z,87.43
2018-10-12T04:28:31.573Z,88.14
2018-10-12T04:29:31.525Z,88.49
2018-10-12T04:30:31.505Z,87.63
2018-10-12T04:31:31.560Z,88.18
2018-10-12T04:32:31.483Z,87.88
2018-10-12T04:33:31.480Z,88.18
2018-10-12T04:34:31.473Z,88.70
2018-10-12T04:35:31.452Z,88.49
2018-10-12T04:36:31.470Z,88.39
2018-10-12T04:37:31.469Z,88.39
2018-10-12T04:38:31.420Z,88.39
2018-10-12T04:39:31.405Z,88.18
2018-10-12T04:40:31.398Z,88.18
2018-10-12T04:41:31.388Z,88.59
2018-10-12T04:42:31.405Z,88.08
2018-10-12T04:43:31.398Z,88.18
2018-10-12T04:44:31.351Z,88.80
2018-10-12T04:45:31.338Z,89.72
2018-10-12T04:46:31.332Z,89.62
2018-10-12T04:47:31.322Z,88.90
2018-10-12T04:48:31.339Z,88.90
2018-10-12T04:49:31.295Z,89.00
2018-10-12T04:50:31.282Z,89.00
2018-10-12T04:51:31.280Z,89.11
2018-10-12T04:52:31.291Z,88.94
2018-10-12T04:53:31.264Z,89.11
2018-10-12T04:54:31.259Z,88.84
2018-10-12T04:55:31.232Z,88.59
2018-10-12T04:56:31.270Z,88.74
2018-10-12T04:57:31.245Z,88.74
2018-10-12T04:58:31.228Z,88.84
2018-10-12T04:59:31.226Z,88.64
2018-10-12T05:00:31.213Z,89.56
2018-10-12T05:01:31.169Z,90.07
2018-10-12T05:02:31.176Z,89.97
2018-10-12T05:03:31.149Z,89.87
2018-10-12T05:04:31.166Z,89.76
2018-10-12T05:05:31.116Z,89.39
2018-10-12T05:06:31.117Z,89.81
2018-10-12T05:07:31.106Z,89.39
2018-10-12T05:08:31.082Z,89.50
2018-10-12T05:09:31.118Z,90.22
2018-10-12T05:10:31.067Z,90.01
2018-10-12T05:11:31.055Z,89.70
2018-10-12T05:12:31.037Z,89.81
2018-10-12T05:13:31.027Z,90.01
2018-10-12T05:14:31.051Z,90.11
2018-10-12T05:15:31.016Z,90.22
2018-10-12T05:16:30.993Z,90.11
2018-10-12T05:17:30.988Z,90.52
2018-10-12T05:18:30.981Z,90.52
2018-10-12T05:19:31.004Z,90.42
2018-10-12T05:20:30.951Z,90.32
2018-10-12T05:21:30.936Z,90.11
2018-10-12T05:22:30.925Z,89.29
2018-10-12T05:23:30.931Z,90.26
2018-10-12T05:24:30.928Z,90.11
2018-10-12T05:25:30.936Z,90.11
2018-10-12T05:26:30.881Z,90.67
2018-10-12T05:27:30.870Z,90.36
2018-10-12T05:28:30.858Z,90.77
2018-10-12T05:29:30.875Z,90.32
2018-10-12T05:30:30.869Z,90.22
2018-10-12T05:31:30.825Z,90.22
2018-10-12T05:32:30.814Z,90.32
2018-10-12T05:33:30.802Z,90.01
2018-10-12T05:34:30.792Z,90.26
2018-10-12T05:35:30.814Z,90.01
2018-10-12T05:36:30.799Z,90.11
2018-10-12T05:37:30.758Z,89.81
2018-10-12T05:38:30.750Z,89.60
2018-10-12T05:39:30.738Z,90.01
2018-10-12T05:40:30.724Z,90.32
2018-10-12T05:41:30.746Z,90.32
2018-10-12T05:42:30.703Z,90.32
2018-10-12T05:43:30.852Z,90.11
2018-10-12T05:44:30.681Z,90.32
2018-10-12T05:45:30.669Z,90.11
2018-10-12T05:46:30.683Z,89.60
2018-10-12T05:47:30.647Z,89.09
2018-10-12T05:48:30.635Z,89.60
2018-10-12T05:49:30.632Z,89.45
2018-10-12T05:50:30.628Z,88.78
2018-10-12T05:51:30.640Z,88.84
2018-10-12T05:52:30.592Z,88.84
2018-10-12T05:53:30.594Z,88.53
2018-10-12T05:54:30.568Z,88.23
2018-10-12T05:55:30.568Z,88.23
2018-10-12T05:56:30.577Z,88.18
2018-10-12T05:57:30.580Z,88.33
2018-10-12T05:58:30.595Z,87.51
2018-10-12T05:59:30.513Z,87.88
2018-10-12T06:00:30.510Z,87.67
2018-10-12T06:01:30.581Z,87.57
2018-10-12T06:02:30.506Z,87.57
2018-10-12T06:03:30.488Z,87.37
2018-10-12T06:04:30.465Z,87.26
2018-10-12T06:05:30.454Z,87.16
2018-10-12T06:06:30.497Z,87.57
2018-10-12T06:07:30.453Z,86.75
2018-10-12T06:08:30.417Z,86.20
2018-10-12T06:09:30.425Z,86.30
2018-10-12T06:10:30.415Z,85.58
2018-10-12T06:11:30.448Z,84.93
2018-10-12T06:12:30.415Z,84.42
2018-10-12T06:13:30.377Z,84.22
2018-10-12T06:14:30.387Z,84.22
2018-10-12T06:15:30.825Z,83.76
2018-10-12T06:16:30.343Z,83.97
2018-10-12T06:17:30.360Z,84.17
2018-10-12T06:18:30.327Z,83.97
2018-10-12T06:19:30.295Z,83.87
2018-10-12T06:20:30.303Z,83.66
2018-10-12T06:21:30.356Z,84.28
2018-10-12T06:22:30.294Z,84.28
2018-10-12T06:23:30.248Z,84.17
2018-10-12T06:24:30.355Z,83.97
2018-10-12T06:25:30.234Z,84.48
2018-10-12T06:26:30.220Z,84.17
2018-10-12T06:27:30.248Z,84.07
2018-10-12T06:28:30.221Z,83.42
2018-10-12T06:29:30.180Z,84.55
2018-10-12T06:30:30.346Z,84.17
2018-10-12T06:31:30.347Z,84.75
2018-10-12T06:32:30.351Z,85.20
2018-10-12T06:33:30.168Z,84.65
2018-10-12T06:34:30.131Z,85.30
2018-10-12T06:35:30.113Z,85.10
2018-10-12T06:36:30.275Z,84.28
2018-10-12T06:37:30.093Z,84.85
2018-10-12T06:38:30.248Z,85.26
2018-10-12T06:39:30.098Z,84.85
2018-10-12T06:40:30.058Z,84.85
2018-10-12T06:41:30.189Z,85.16
2018-10-12T06:42:30.042Z,84.99
2018-10-12T06:43:30.064Z,85.20
2018-10-12T06:44:30.281Z,85.26
2018-10-12T06:45:30.058Z,84.85
2018-10-12T06:46:30.020Z,84.95
2018-10-12T06:47:29.979Z,85.06
2018-10-12T06:48:30.007Z,86.18
2018-10-12T06:49:29.974Z,85.26
2018-10-12T06:50:29.947Z,86.38
2018-10-12T06:51:29.939Z,85.97
2018-10-12T06:52:29.961Z,86.08
2018-10-12T06:53:29.944Z,85.32
2018-10-12T06:54:29.972Z,85.12
2018-10-12T06:55:29.891Z,85.26
2018-10-12T06:56:29.884Z,85.02
2018-10-12T06:57:29.886Z,85.22
2018-10-12T06:58:29.859Z,84.81
2018-10-12T06:59:29.874Z,84.09
2018-10-12T07:00:29.839Z,85.12
2018-10-12T07:01:29.826Z,84.67
2018-10-12T07:02:29.841Z,85.89
2018-10-12T07:03:29.805Z,85.89
2018-10-12T07:04:29.830Z,85.22
2018-10-12T07:05:29.808Z,84.57
2018-10-12T07:06:29.772Z,84.77
2018-10-12T07:07:29.762Z,84.94
2018-10-12T07:08:29.751Z,85.08
2018-10-12T07:09:29.764Z,85.89
2018-10-12T07:10:29.769Z,85.65
2018-10-12T07:11:29.718Z,86.36
2018-10-12T07:12:29.738Z,85.65
2018-10-12T07:13:29.690Z,84.63
2018-10-12T07:14:29.721Z,84.74
2018-10-12T07:15:29.793Z,83.87
2018-10-12T07:16:29.718Z,83.98
2018-10-12T07:17:29.650Z,84.28
2018-10-12T07:18:29.644Z,83.47
2018-10-12T07:19:29.709Z,83.37
2018-10-12T07:20:29.613Z,82.75
2018-10-12T07:21:29.639Z,82.71
2018-10-12T07:22:29.654Z,83.02
2018-10-12T07:23:29.580Z,83.02
2018-10-12T07:24:29.616Z,82.82
2018-10-12T07:25:29.558Z,80.94
2018-10-12T07:26:29.572Z,80.33
2018-10-12T07:27:29.534Z,80.60
2018-10-12T07:28:29.588Z,80.09
2018-10-12T07:29:29.521Z,79.48
2018-10-12T07:30:29.500Z,79.44
2018-10-12T07:31:29.536Z,79.14
2018-10-12T07:32:29.519Z,79.50
2018-10-12T07:33:29.467Z,79.34
2018-10-12T07:34:29.457Z,78.83
2018-10-12T07:35:29.446Z,77.98
2018-10-12T07:36:29.435Z,78.05
2018-10-12T07:37:29.511Z,78.15
2018-10-12T07:38:29.416Z,77.94
2018-10-12T07:39:29.425Z,77.50
2018-10-12T07:40:29.394Z,78.21
2018-10-12T07:41:29.410Z,77.87
2018-10-12T07:42:29.449Z,77.36
2018-10-12T07:43:29.357Z,77.47
2018-10-12T07:44:29.353Z,76.21
2018-10-12T07:45:29.336Z,75.60
2018-10-12T07:46:29.360Z,75.19
2018-10-12T07:47:29.358Z,76.17
2018-10-12T07:48:29.304Z,75.56
2018-10-12T07:49:29.289Z,75.43
2018-10-12T07:50:29.286Z,75.43
2018-10-12T07:51:29.293Z,75.39
2018-10-12T07:52:29.264Z,73.97
2018-10-12T07:53:29.321Z,74.07
2018-10-12T07:54:29.260Z,73.73
2018-10-12T07:55:29.220Z,73.29
2018-10-12T07:56:29.211Z,73.43
2018-10-12T07:57:29.239Z,72.48
2018-10-12T07:58:29.238Z,73.09
2018-10-12T07:59:29.183Z,71.26
2018-10-12T08:00:29.195Z,72.24
2018-10-12T08:01:29.156Z,70.39
2018-10-12T08:02:29.174Z,68.97
2018-10-12T08:03:29.140Z,69.04
2018-10-12T08:04:29.123Z,67.69
2018-10-12T08:05:29.119Z,68.50
2018-10-12T08:06:29.161Z,67.99
2018-10-12T08:07:29.159Z,68.87
2018-10-12T08:08:29.081Z,68.87
2018-10-12T08:09:29.111Z,69.55
2018-10-12T08:10:29.209Z,68.74
2018-10-12T08:11:29.045Z,68.54
2018-10-12T08:12:29.036Z,66.69
2018-10-12T08:13:29.030Z,66.38
2018-10-12T08:14:29.051Z,66.38
2018-10-12T08:15:29.003Z,65.04
2018-10-12T08:16:29.005Z,65.34
2018-10-12T08:17:28.977Z,64.61
2018-10-12T08:18:28.971Z,64.50
2018-10-12T08:19:29.019Z,64.47
2018-10-12T08:20:29.061Z,63.67
2018-10-12T08:21:28.935Z,64.47
2018-10-12T08:22:28.974Z,64.04
2018-10-12T08:23:28.921Z,63.36
2018-10-12T08:24:28.960Z,62.83
2018-10-12T08:25:28.893Z,62.12
2018-10-12T08:26:28.879Z,62.09
2018-10-12T08:27:28.981Z,62.19
2018-10-12T08:28:28.857Z,61.59
2018-10-12T08:29:28.872Z,61.96
2018-10-12T08:30:28.884Z,62.77
2018-10-12T08:31:28.940Z,61.25
2018-10-12T08:32:28.811Z,60.15
2018-10-12T08:33:28.801Z,60.85
2018-10-12T08:34:28.790Z,60.05
2018-10-12T08:35:28.821Z,59.01
2018-10-12T08:36:28.881Z,58.91
2018-10-12T08:37:28.761Z,59.62
2018-10-12T08:38:28.744Z,58.71
2018-10-12T08:39:28.735Z,59.48
2018-10-12T08:40:28.757Z,59.89
2018-10-12T08:41:28.743Z,59.59
2018-10-12T08:42:28.702Z,59.06
2018-10-12T08:43:28.689Z,58.22
2018-10-12T08:44:28.677Z,57.95
2018-10-12T08:45:28.695Z,58.22
2018-10-12T08:46:28.660Z,58.80
2018-10-12T08:47:28.844Z,57.09
2018-10-12T08:48:29.002Z,58.20
2018-10-12T08:49:28.622Z,56.89
2018-10-12T08:50:28.612Z,56.76
2018-10-12T08:51:28.599Z,57.50
2018-10-12T08:52:28.618Z,57.17
2018-10-12T08:53:28.579Z,57.37
2018-10-12T08:54:28.570Z,56.46
2018-10-12T08:55:28.610Z,57.14
2018-10-12T08:56:28.632Z,55.63
2018-10-12T08:57:28.638Z,56.63
2018-10-12T08:58:28.554Z,55.43
2018-10-12T08:59:28.515Z,56.30
2018-10-12T09:00:28.507Z,55.80
2018-10-12T09:01:28.538Z,56.81
2018-10-12T09:02:28.484Z,56.10
2018-10-12T09:03:28.520Z,56.01
2018-10-12T09:04:28.457Z,55.68
2018-10-12T09:05:28.452Z,55.88
2018-10-12T09:06:28.442Z,56.18
2018-10-12T09:07:28.560Z,55.15
2018-10-12T09:08:28.518Z,55.55
2018-10-12T09:09:28.418Z,55.65
2018-10-12T09:10:28.404Z,55.52
2018-10-12T09:11:28.396Z,55.32
2018-10-12T09:12:28.371Z,55.22
2018-10-12T09:13:28.385Z,55.50
2018-10-12T09:14:28.381Z,55.10
2018-10-12T09:15:28.340Z,55.10
2018-10-12T09:16:28.415Z,54.97
2018-10-12T09:17:28.318Z,53.37
2018-10-12T09:18:28.361Z,54.57
2018-10-12T09:19:28.340Z,53.37
2018-10-12T09:20:28.424Z,53.47
2018-10-12T09:21:28.284Z,53.55
2018-10-12T09:22:28.257Z,54.55
2018-10-12T09:23:28.249Z,54.69
2018-10-12T09:24:28.266Z,53.30
2018-10-12T09:25:28.241Z,53.19
2018-10-12T09:26:28.216Z,54.19
2018-10-12T09:27:28.254Z,53.09
2018-10-12T09:28:28.194Z,52.57
2018-10-12T09:29:28.209Z,52.69
2018-10-12T09:30:28.236Z,52.77
2018-10-12T09:31:28.163Z,52.57
2018-10-12T09:32:28.146Z,52.67
2018-10-12T09:33:28.141Z,52.57
2018-10-12T09:34:28.168Z,52.77
2018-10-12T09:35:28.114Z,53.17
2018-10-12T09:36:28.118Z,53.44
2018-10-12T09:37:28.097Z,52.64
2018-10-12T09:38:28.081Z,52.62
2018-10-12T09:39:28.103Z,52.62
2018-10-12T09:40:28.123Z,52.12
2018-10-12T09:41:28.048Z,52.39
2018-10-12T09:42:28.040Z,51.79
2018-10-12T09:43:28.038Z,52.99
2018-10-12T09:44:28.018Z,52.19
2018-10-12T09:45:28.050Z,51.79
2018-10-12T09:46:27.997Z,52.89
2018-10-12T09:47:27.989Z,52.07
2018-10-12T09:48:27.972Z,52.44
2018-10-12T09:49:27.965Z,51.37
2018-10-12T09:50:27.998Z,51.70
2018-10-12T09:51:27.937Z,52.67
2018-10-12T09:52:28.031Z,51.97
2018-10-12T09:53:27.915Z,51.07
2018-10-12T09:54:27.904Z,51.75
2018-10-12T09:55:27.940Z,51.25
2018-10-12T09:56:27.882Z,51.84
2018-10-12T09:57:27.871Z,52.34
2018-10-12T09:58:27.863Z,51.75
2018-10-12T09:59:27.852Z,51.62
2018-10-12T10:00:28.156Z,49.83
2018-10-12T10:01:27.873Z,51.12
2018-10-12T10:02:27.850Z,50.80
2018-10-12T10:03:27.806Z,51.00
2018-10-12T10:04:27.796Z,50.32
2018-10-12T10:05:27.834Z,50.52
2018-10-12T10:06:27.773Z,51.72
2018-10-12T10:07:27.840Z,49.63
2018-10-12T10:08:27.885Z,51.12
2018-10-12T10:09:27.741Z,52.00
2018-10-12T10:10:27.757Z,51.50
2018-10-12T10:11:27.745Z,51.07
2018-10-12T10:12:27.709Z,50.08
2018-10-12T10:13:27.857Z,50.38
2018-10-12T10:14:27.714Z,50.80
2018-10-12T10:15:27.877Z,50.87
2018-10-12T10:16:28.686Z,51.05
2018-10-12T10:17:27.682Z,49.48
2018-10-12T10:18:27.664Z,51.07
2018-10-12T10:19:27.785Z,51.15
2018-10-12T10:20:27.632Z,49.55
2018-10-12T10:21:27.659Z,49.76
2018-10-12T10:22:27.686Z,50.43
2018-10-12T10:23:27.596Z,48.64
2018-10-12T10:24:27.615Z,49.85
2018-10-12T10:25:27.575Z,49.85
2018-10-12T10:26:27.561Z,49.95
2018-10-12T10:27:27.550Z,50.45
2018-10-12T10:28:27.564Z,49.26
2018-10-12T10:29:27.543Z,50.43
2018-10-12T10:30:27.516Z,50.52
2018-10-12T10:31:27.512Z,50.13
2018-10-12T10:32:27.498Z,49.71
2018-10-12T10:33:27.516Z,49.51
2018-10-12T10:34:27.472Z,48.32
2018-10-12T10:35:27.464Z,48.81
2018-10-12T10:36:27.449Z,48.81
2018-10-12T10:37:27.439Z,47.62
2018-10-12T10:38:27.461Z,48.69
2018-10-12T10:39:27.421Z,49.08
2018-10-12T10:40:27.410Z,48.10
2018-10-12T10:41:27.425Z,48.49
2018-10-12T10:42:27.384Z,47.70
2018-10-12T10:43:27.373Z,48.10
2018-10-12T10:44:27.384Z,48.27
2018-10-12T10:45:27.377Z,48.69
2018-10-12T10:46:27.495Z,46.78
2018-10-12T10:47:27.384Z,49.56
2018-10-12T10:48:27.319Z,47.10
2018-10-12T10:49:27.312Z,46.60
2018-10-12T10:50:27.361Z,48.17
2018-10-12T10:51:27.344Z,47.57
2018-10-12T10:52:27.290Z,46.58
2018-10-12T10:53:27.314Z,48.44
2018-10-12T10:54:27.258Z,46.68
2018-10-12T10:55:27.253Z,46.68
2018-10-12T10:56:27.241Z,46.38
2018-10-12T10:57:27.253Z,46.58
2018-10-12T10:58:27.209Z,46.68
2018-10-12T10:59:27.347Z,48.07
2018-10-12T11:00:27.200Z,47.67
2018-10-12T11:01:27.176Z,47.95
2018-10-12T11:02:27.220Z,46.86
2018-10-12T11:03:27.154Z,46.95
2018-10-12T11:04:27.143Z,46.66
2018-10-12T11:05:27.165Z,45.90
2018-10-12T11:06:27.187Z,48.39
2018-10-12T11:07:27.149Z,48.10
2018-10-12T11:08:27.100Z,47.77
2018-10-12T11:09:27.090Z,46.78
2018-10-12T11:10:27.098Z,46.88
2018-10-12T11:11:27.109Z,47.67
2018-10-12T11:12:27.096Z,47.28
2018-10-12T11:13:27.298Z,45.89
2018-10-12T11:14:27.068Z,48.14
2018-10-12T11:15:27.123Z,47.45
2018-10-12T11:16:27.071Z,46.95
2018-10-12T11:17:27.003Z,46.16
2018-10-12T11:18:27.020Z,47.85
2018-10-12T11:19:27.027Z,47.05
2018-10-12T11:20:26.972Z,46.86
2018-10-12T11:21:26.961Z,46.26
2018-10-12T11:22:26.951Z,46.66
2018-10-12T11:23:27.092Z,46.76
2018-10-12T11:24:27.043Z,46.56
2018-10-12T11:25:26.918Z,46.76
2018-10-12T11:26:27.001Z,46.95
2018-10-12T11:27:26.897Z,46.36
2018-10-12T11:28:27.073Z,45.89
2018-10-12T11:29:26.876Z,47.77
2018-10-12T11:30:26.986Z,47.38
2018-10-12T11:31:26.862Z,46.76
2018-10-12T11:32:26.845Z,46.76
2018-10-12T11:33:26.873Z,46.46
2018-10-12T11:34:26.823Z,48.94
2018-10-12T11:35:26.814Z,47.05
2018-10-12T11:36:26.806Z,46.38
2018-10-12T11:37:26.849Z,47.35
2018-10-12T11:38:26.858Z,47.67
2018-10-12T11:39:26.792Z,48.14
2018-10-12T11:40:26.758Z,47.38
2018-10-12T11:41:26.761Z,46.98
2018-10-12T11:42:26.734Z,48.17
2018-10-12T11:43:27.080Z,46.76
2018-10-12T11:44:26.748Z,47.28
2018-10-12T11:45:26.734Z,47.17
2018-10-12T11:46:26.705Z,47.95
2018-10-12T11:47:26.778Z,48.25
2018-10-12T11:48:26.669Z,46.95
2018-10-12T11:49:26.714Z,48.72
2018-10-12T11:50:26.667Z,46.53
2018-10-12T11:51:26.637Z,47.13
2018-10-12T11:52:26.633Z,48.05
2018-10-12T11:53:26.616Z,48.22
2018-10-12T11:54:26.632Z,47.83
2018-10-12T11:55:26.594Z,47.83
2018-10-12T11:56:26.587Z,46.73
2018-10-12T11:57:26.575Z,47.33
2018-10-12T11:58:26.578Z,47.31
2018-10-12T11:59:26.583Z,46.12
2018-10-12T12:00:26.540Z,45.72
2018-10-12T12:01:26.538Z,46.61
2018-10-12T12:02:26.537Z,46.12
2018-10-12T12:03:26.524Z,46.51
2018-10-12T12:04:26.532Z,46.31
2018-10-12T12:05:26.521Z,45.42
2018-10-12T12:06:26.600Z,47.53
2018-10-12T12:07:26.474Z,47.31
2018-10-12T12:08:26.471Z,46.83
2018-10-12T12:09:26.451Z,46.34
2018-10-12T12:10:26.474Z,46.91
2018-10-12T12:11:26.422Z,47.11
2018-10-12T12:12:26.413Z,46.22
2018-10-12T12:13:26.482Z,47.63
2018-10-12T12:14:26.394Z,47.43
2018-10-12T12:15:26.420Z,46.71
2018-10-12T12:16:26.410Z,46.02
2018-10-12T12:17:26.358Z,47.01
2018-10-12T12:18:26.349Z,46.24
2018-10-12T12:19:26.494Z,45.64
2018-10-12T12:20:26.376Z,45.94
2018-10-12T12:21:26.314Z,46.14
2018-10-12T12:22:26.305Z,46.34
2018-10-12T12:23:26.296Z,46.61
2018-10-12T12:24:26.323Z,46.73
2018-10-12T12:25:26.311Z,46.53
2018-10-12T12:26:26.273Z,46.44
2018-10-12T12:27:26.295Z,46.53
2018-10-12T12:28:26.242Z,46.44
2018-10-12T12:29:26.246Z,46.34
2018-10-12T12:30:26.225Z,44.87
2018-10-12T12:31:26.241Z,46.76
2018-10-12T12:32:26.230Z,47.25
2018-10-12T12:33:26.190Z,46.76
2018-10-12T12:34:26.189Z,47.35
2018-10-12T12:35:26.529Z,46.76
2018-10-12T12:36:26.176Z,46.76
2018-10-12T12:37:26.187Z,47.05
2018-10-12T12:38:26.147Z,45.76
2018-10-12T12:39:26.127Z,47.33
2018-10-12T12:40:26.130Z,46.53
2018-10-12T12:41:26.110Z,46.04
2018-10-12T12:42:26.144Z,45.54
2018-10-12T12:43:26.104Z,46.16
2018-10-12T12:44:26.069Z,47.25
2018-10-12T12:45:26.167Z,46.64
2018-10-12T12:46:26.052Z,47.33
2018-10-12T12:47:26.191Z,46.83
2018-10-12T12:48:26.312Z,46.73
2018-10-12T12:49:26.334Z,45.42
2018-10-12T12:50:26.030Z,46.34
2018-10-12T12:51:26.009Z,45.74
2018-10-12T12:52:26.010Z,45.42